Time;durP1;ratioP1;P1;durP2;ratioP2;P2;SDS_P1;SDS_P2;PMS_P1;PMS_P2;Temp;Humidity;BMP_temperature;BMP_pressure;BME280_temperature;BME280_humidity;BME280_pressure;Samples;Min_cycle;Max_cycle;Signal;HPM_P1;HPM_P2
2021/08/23 00:01:06;;;;;;;5.12;3.10;;;;;;;24.08;58.23;99799.56;4469262;31;33129;-82
2021/08/23 00:03:34;;;;;;;6.32;3.45;;;;;;;24.17;57.82;99798.66;4491050;31;32965;-82
2021/08/23 00:06:02;;;;;;;4.55;3.45;;;;;;;24.12;57.98;99795.56;4470929;31;33306;-82
2021/08/23 00:08:30;;;;;;;3.90;3.28;;;;;;;24.16;57.74;99790.69;4472220;31;34368;-82
2021/08/23 00:10:58;;;;;;;6.78;3.67;;;;;;;24.09;58.35;99781.53;4471331;31;34002;-81
2021/08/23 00:13:25;;;;;;;5.43;4.03;;;;;;;24.10;58.27;99778.69;4482271;31;34003;-81
2021/08/23 00:15:54;;;;;;;7.70;3.70;;;;;;;24.09;58.13;99785.06;4483649;31;33941;-82
2021/08/23 00:18:23;;;;;;;4.62;3.75;;;;;;;24.09;57.88;99779.69;4460067;31;32250;-82
2021/08/23 00:20:55;;;;;;;5.82;3.62;;;;;;;24.09;57.96;99770.75;4488776;31;33678;-81
2021/08/23 00:23:25;;;;;;;6.47;4.25;;;;;;;23.97;58.42;99767.41;4481061;31;34009;-81
2021/08/23 00:25:53;;;;;;;5.90;4.00;;;;;;;24.07;57.83;99760.13;4489310;31;34100;-82
2021/08/23 00:28:21;;;;;;;5.15;3.87;;;;;;;24.00;58.07;99764.41;4472465;31;32393;-82
2021/08/23 00:30:49;;;;;;;4.37;3.45;;;;;;;23.94;57.99;99756.97;4469765;31;33267;-82
2021/08/23 00:33:17;;;;;;;5.90;3.28;;;;;;;24.09;57.45;99758.09;4483984;31;34116;-82
2021/08/23 00:35:44;;;;;;;6.28;3.62;;;;;;;24.10;57.42;99759.78;4487015;31;33565;-81
2021/08/23 00:38:12;;;;;;;4.97;3.58;;;;;;;24.08;57.65;99756.41;4488446;31;33021;-81
2021/08/23 00:40:40;;;;;;;8.32;3.72;;;;;;;23.92;58.59;99761.62;4472379;31;33903;-81
2021/08/23 00:43:07;;;;;;;6.40;3.53;;;;;;;24.05;58.11;99762.09;4473643;31;34039;-81
2021/08/23 00:45:35;;;;;;;4.62;3.37;;;;;;;24.04;58.34;99752.31;4488589;31;35286;-81
2021/08/23 00:48:03;;;;;;;6.47;3.75;;;;;;;24.03;58.70;99758.72;4481697;31;34106;-81
2021/08/23 00:50:30;;;;;;;5.43;3.60;;;;;;;23.94;59.44;99756.97;4482934;31;33581;-81
2021/08/23 00:52:58;;;;;;;4.45;3.33;;;;;;;23.95;59.37;99750.56;4466009;31;34521;-81
2021/08/23 00:55:26;;;;;;;5.87;4.20;;;;;;;23.85;59.67;99752.47;4481505;31;34124;-81
2021/08/23 00:57:53;;;;;;;5.85;3.80;;;;;;;23.91;59.28;99754.56;4473086;31;33546;-81
2021/08/23 01:00:22;;;;;;;5.72;4.00;;;;;;;23.85;59.24;99755.19;4472264;31;34639;-81
2021/08/23 01:03:31;;;;;;;6.20;4.10;;;;;;;24.02;58.45;99751.63;4487383;31;34076;-81
2021/08/23 01:06:02;;;;;;;6.30;4.55;;;;;;;23.86;59.17;99767.66;4467493;32;33747;-81
2021/08/23 01:08:49;;;;;;;5.97;4.07;;;;;;;23.70;59.94;99757.56;4486332;31;34197;-81
2021/08/23 01:11:20;;;;;;;8.55;4.30;;;;;;;23.84;59.51;99758.88;4473142;31;32559;-81
2021/08/23 01:13:49;;;;;;;5.28;3.45;;;;;;;23.77;59.81;99764.87;4483576;31;34047;-81
2021/08/23 01:16:19;;;;;;;3.80;3.12;;;;;;;23.87;59.45;99758.56;4488121;31;34239;-81
2021/08/23 01:18:47;;;;;;;3.85;3.08;;;;;;;24.14;58.90;99763.03;4488457;31;34411;-81
2021/08/23 01:21:18;;;;;;;6.00;3.78;;;;;;;23.98;59.51;99769.12;4485409;31;33699;-81
2021/08/23 01:23:47;;;;;;;5.70;3.78;;;;;;;23.89;59.79;99753.88;4486773;31;36666;-81
2021/08/23 01:26:19;;;;;;;8.73;4.45;;;;;;;23.83;60.02;99763.41;4472704;31;33171;-80
2021/08/23 01:29:07;;;;;;;7.28;4.12;;;;;;;23.65;61.16;99766.09;4487727;31;33365;-81
2021/08/23 01:31:35;;;;;;;5.57;4.00;;;;;;;23.70;60.83;99773.72;4470939;31;33977;-81
2021/08/23 01:34:03;;;;;;;4.00;3.60;;;;;;;23.79;60.33;99774.66;4483478;31;34818;-81
2021/08/23 01:36:31;;;;;;;4.32;3.67;;;;;;;23.71;60.72;99778.97;4469258;31;34007;-81
2021/08/23 01:38:59;;;;;;;7.28;3.87;;;;;;;23.80;60.52;99779.91;4488550;31;33819;-80
2021/08/23 01:41:27;;;;;;;4.87;3.30;;;;;;;23.83;60.40;99778.72;4460266;31;35411;-81
2021/08/23 01:43:54;;;;;;;5.45;3.87;;;;;;;23.82;60.48;99777.88;4472323;31;34061;-81
2021/08/23 01:46:22;;;;;;;4.80;3.80;;;;;;;23.79;60.94;99774.66;4471520;31;34471;-81
2021/08/23 01:48:50;;;;;;;4.43;3.90;;;;;;;23.81;60.90;99769.97;4488727;31;33629;-81
2021/08/23 01:51:18;;;;;;;5.45;3.35;;;;;;;23.88;60.50;99766.50;4493282;31;33616;-80
2021/08/23 01:53:46;;;;;;;5.18;4.18;;;;;;;23.98;60.05;99775.38;4485646;31;34138;-80
2021/08/23 01:56:14;;;;;;;8.82;3.87;;;;;;;24.28;58.65;99795.72;4472952;31;33935;-80
2021/08/23 01:58:41;;;;;;;6.15;4.28;;;;;;;23.48;59.81;99818.06;4488112;31;33376;-80
2021/08/23 02:01:09;;;;;;;4.70;3.70;;;;;;;23.25;59.26;99813.06;4481137;31;34588;-81
2021/08/23 02:03:37;;;;;;;6.60;3.72;;;;;;;23.81;57.25;99811.25;4473245;31;35107;-81
2021/08/23 02:06:04;;;;;;;6.18;4.62;;;;;;;23.88;56.88;99814.16;4470020;31;34627;-80
2021/08/23 02:08:32;;;;;;;6.12;4.45;;;;;;;23.75;57.40;99810.00;4486223;31;33727;-80
2021/08/23 02:10:59;;;;;;;8.00;4.78;;;;;;;23.73;57.90;99805.75;4472567;31;33945;-80
2021/08/23 02:13:27;;;;;;;7.30;5.00;;;;;;;23.63;58.91;99795.00;4482396;31;33767;-82
2021/08/23 02:15:55;;;;;;;6.12;5.22;;;;;;;23.76;59.11;99800.91;4485497;31;33857;-82
2021/08/23 02:18:23;;;;;;;5.85;4.25;;;;;;;23.87;59.04;99801.69;4471326;31;32968;-81
2021/08/23 02:20:50;;;;;;;5.70;4.97;;;;;;;24.13;58.30;99791.88;4485719;31;33935;-81
2021/08/23 02:23:18;;;;;;;5.07;4.57;;;;;;;23.80;59.66;99800.63;4484469;31;34011;-81
2021/08/23 02:25:46;;;;;;;7.35;5.22;;;;;;;23.82;59.34;99791.38;4486865;31;33964;-81
2021/08/23 02:28:13;;;;;;;8.82;4.45;;;;;;;23.88;59.07;99789.91;4490217;31;33424;-81
2021/08/23 02:30:41;;;;;;;6.65;4.55;;;;;;;23.82;59.05;99790.53;4465102;31;34679;-81
2021/08/23 02:33:09;;;;;;;6.15;4.93;;;;;;;23.80;59.28;99789.84;4472284;31;34167;-82
2021/08/23 02:35:36;;;;;;;7.87;4.75;;;;;;;23.91;58.55;99793.16;4483555;31;34815;-81
2021/08/23 02:38:04;;;;;;;5.90;4.45;;;;;;;23.81;59.01;99791.53;4488676;31;33226;-81
2021/08/23 02:40:32;;;;;;;6.70;4.60;;;;;;;23.82;58.91;99787.81;4477312;31;34237;-81
2021/08/23 02:43:00;;;;;;;7.18;5.10;;;;;;;23.73;59.55;99784.19;4485732;31;34816;-82
2021/08/23 02:45:27;;;;;;;7.93;5.03;;;;;;;23.45;60.67;99789.59;4475936;31;33875;-81
2021/08/23 02:47:55;;;;;;;5.72;5.05;;;;;;;23.56;60.69;99787.69;4473960;31;33101;-81
2021/08/23 02:50:23;;;;;;;5.70;5.00;;;;;;;23.32;61.53;99786.38;4484302;31;33918;-81
2021/08/23 02:52:50;;;;;;;6.78;4.50;;;;;;;23.44;61.23;99787.03;4468880;31;35085;-81
2021/08/23 02:55:18;;;;;;;6.93;4.90;;;;;;;23.50;61.26;99779.22;4492451;31;34994;-81
2021/08/23 02:57:45;;;;;;;6.35;4.87;;;;;;;23.33;62.10;99777.31;4481935;31;33430;-81
2021/08/23 03:00:14;;;;;;;8.98;5.15;;;;;;;23.69;61.17;99767.50;4486660;31;33539;-82
2021/08/23 03:02:42;;;;;;;4.85;3.90;;;;;;;23.80;60.94;99768.28;4463133;31;34463;-81
2021/08/23 03:05:09;;;;;;;5.47;4.50;;;;;;;23.76;61.10;99765.88;4474059;31;34798;-81
2021/08/23 03:07:37;;;;;;;6.62;5.00;;;;;;;23.86;60.72;99768.50;4478724;31;33124;-80
2021/08/23 03:10:05;;;;;;;8.07;5.30;;;;;;;23.75;61.29;99771.41;4481789;31;34578;-80
2021/08/23 03:12:34;;;;;;;6.50;4.80;;;;;;;23.65;61.83;99768.78;4486146;31;34012;-80
2021/08/23 03:15:04;;;;;;;6.22;5.03;;;;;;;23.57;62.14;99774.03;4486583;31;33860;-81
2021/08/23 03:17:37;;;;;;;5.85;4.68;;;;;;;23.53;62.41;99783.44;4488328;31;34399;-80
2021/08/23 03:20:05;;;;;;;6.37;4.53;;;;;;;23.45;62.79;99794.09;4471034;32;33994;-81
2021/08/23 03:22:33;;;;;;;6.57;4.72;;;;;;;23.49;62.60;99798.19;4494732;31;32849;-80
2021/08/23 03:25:01;;;;;;;11.05;5.25;;;;;;;23.21;63.61;99805.41;4453993;31;34307;-81
2021/08/23 03:27:29;;;;;;;6.82;4.60;;;;;;;23.32;63.27;99813.31;4491088;31;33476;-80
2021/08/23 03:30:11;;;;;;;7.35;4.45;;;;;;;23.21;63.70;99814.34;4486084;31;33595;-80
2021/08/23 03:32:41;;;;;;;8.30;4.37;;;;;;;23.14;63.87;99829.41;4489881;31;34609;-80
2021/08/23 03:35:35;;;;;;;7.90;4.47;;;;;;;23.21;63.55;99827.81;4483900;31;33900;-80
2021/08/23 03:42:28;;;;;;;4.93;4.37;;;;;;;23.17;63.62;99831.81;4487153;31;33567;-81
2021/08/23 03:45:09;;;;;;;6.55;5.15;;;;;;;23.11;63.79;99832.38;4487072;31;34719;-81
2021/08/23 03:51:51;;;;;;;6.45;4.53;;;;;;;22.77;65.01;99825.78;4419713;31;33057;-81
2021/08/23 03:55:22;;;;;;;13.50;6.37;;;;;;;22.41;66.48;99839.84;4416428;32;33910;-81
2021/08/23 03:58:56;;;;;;;5.97;4.12;;;;;;;22.76;65.21;99833.00;4406341;32;34506;-81
2021/08/23 04:02:36;;;;;;;6.37;4.60;;;;;;;22.48;66.47;99834.75;4345358;32;32840;-80
2021/08/23 04:09:14;;;;;;;7.80;6.37;;;;;;;22.99;65.37;99847.87;4415890;32;34702;-81
2021/08/23 04:11:42;;;;;;;10.63;6.30;;;;;;;22.99;65.77;99858.66;4402687;32;34252;-81
2021/08/23 04:14:11;;;;;;;8.70;6.97;;;;;;;22.87;66.31;99857.06;4427680;32;34516;-81
2021/08/23 04:16:38;;;;;;;9.02;6.53;;;;;;;22.84;66.46;99851.16;4400957;32;32165;-81
2021/08/23 04:19:07;;;;;;;9.15;5.97;;;;;;;22.71;66.91;99856.81;4428660;31;34452;-81
2021/08/23 04:21:35;;;;;;;8.85;6.62;;;;;;;22.20;68.95;99853.41;4485774;31;34675;-82
2021/08/23 04:24:02;;;;;;;10.02;5.43;;;;;;;22.48;67.94;99861.66;4469387;31;34372;-83
2021/08/23 04:26:30;;;;;;;6.70;5.00;;;;;;;22.93;66.09;99851.16;4483738;31;34297;-83
2021/08/23 04:28:58;;;;;;;7.32;5.43;;;;;;;22.85;66.19;99858.22;4487840;31;33394;-82
2021/08/23 04:31:28;;;;;;;9.30;4.95;;;;;;;22.82;66.08;99858.50;4483022;31;33655;-82
2021/08/23 04:33:56;;;;;;;6.75;5.30;;;;;;;23.25;64.61;99856.16;4480242;31;33544;-82
2021/08/23 04:36:24;;;;;;;7.72;5.03;;;;;;;23.19;64.27;99862.13;4471909;31;33396;-82
2021/08/23 04:38:52;;;;;;;7.18;5.68;;;;;;;22.79;65.77;99870.44;4454392;31;33309;-82
2021/08/23 04:41:19;;;;;;;6.55;4.62;;;;;;;22.90;65.11;99864.06;4468586;31;33975;-83
2021/08/23 04:43:47;;;;;;;6.85;4.72;;;;;;;23.08;64.37;99870.41;4464690;31;36449;-82
2021/08/23 04:46:15;;;;;;;6.82;5.62;;;;;;;22.98;64.74;99874.97;4489714;31;33961;-82
2021/08/23 04:48:42;;;;;;;4.50;3.97;;;;;;;22.96;64.89;99876.94;4475062;31;33401;-83
2021/08/23 04:51:11;;;;;;;5.32;4.25;;;;;;;23.12;64.40;99879.91;4479778;31;33541;-83
2021/08/23 04:53:38;;;;;;;7.00;4.32;;;;;;;23.01;64.81;99871.97;4469445;31;33844;-82
2021/08/23 04:56:10;;;;;;;7.60;4.62;;;;;;;23.05;64.86;99870.69;4470056;31;33454;-82
2021/08/23 04:58:39;;;;;;;6.32;4.57;;;;;;;22.75;66.13;99871.69;4469521;31;33477;-83
2021/08/23 05:01:06;;;;;;;6.82;5.10;;;;;;;23.00;65.39;99862.19;4471637;31;33877;-83
2021/08/23 05:03:34;;;;;;;7.70;5.57;;;;;;;23.21;64.76;99868.22;4483677;31;33309;-82
2021/08/23 05:06:02;;;;;;;5.87;5.05;;;;;;;23.21;64.65;99861.97;4486873;31;33166;-83
2021/08/23 05:08:30;;;;;;;10.85;5.97;;;;;;;23.06;65.30;99867.00;4470419;31;34552;-82
2021/08/23 05:10:59;;;;;;;10.57;5.60;;;;;;;22.97;65.66;99870.53;4471156;31;33207;-82
2021/08/23 05:13:27;;;;;;;9.27;6.55;;;;;;;22.90;66.12;99874.81;4485021;31;34463;-82
2021/08/23 05:15:56;;;;;;;7.37;6.62;;;;;;;22.90;66.47;99878.37;4476628;31;33159;-83
2021/08/23 05:18:24;;;;;;;9.63;6.93;;;;;;;22.90;66.84;99877.53;4459395;31;34515;-83
2021/08/23 05:20:52;;;;;;;10.38;7.25;;;;;;;22.50;68.46;99878.47;4473804;31;32746;-82
2021/08/23 05:23:20;;;;;;;9.02;6.78;;;;;;;22.55;68.07;99884.31;4483687;31;34730;-83
2021/08/23 05:25:48;;;;;;;10.25;6.65;;;;;;;22.52;68.24;99889.97;4474224;31;33490;-82
2021/08/23 05:28:16;;;;;;;6.78;5.78;;;;;;;22.58;67.75;99885.88;4477326;31;33605;-83
2021/08/23 05:30:44;;;;;;;9.48;5.95;;;;;;;22.86;66.67;99897.59;4475450;31;33693;-82
2021/08/23 05:33:11;;;;;;;10.73;5.80;;;;;;;22.77;67.13;99885.00;4471187;31;34516;-83
2021/08/23 05:35:39;;;;;;;7.68;5.87;;;;;;;23.05;66.17;99886.84;4477612;31;33648;-82
2021/08/23 05:38:07;;;;;;;6.93;6.05;;;;;;;22.93;66.57;99904.13;4489252;31;33731;-82
2021/08/23 05:40:40;;;;;;;7.62;5.40;;;;;;;22.90;66.45;99901.75;4475226;31;33574;-82
2021/08/23 05:43:08;;;;;;;7.03;5.75;;;;;;;23.01;66.02;99915.03;4487371;31;33817;-82
2021/08/23 05:45:35;;;;;;;6.28;5.12;;;;;;;22.87;66.10;99915.47;4489992;31;33367;-82
2021/08/23 05:48:04;;;;;;;5.53;4.28;;;;;;;22.85;65.83;99921.00;4464093;31;34364;-82
2021/08/23 05:50:31;;;;;;;9.63;5.87;;;;;;;22.48;67.35;99923.53;4469071;31;34077;-83
2021/08/23 05:52:59;;;;;;;5.37;4.15;;;;;;;22.53;66.73;99932.03;4476687;31;33948;-82
2021/08/23 05:55:26;;;;;;;8.45;3.60;;;;;;;22.37;67.94;99929.91;4486492;31;33145;-83
2021/08/23 05:57:54;;;;;;;5.07;3.72;;;;;;;22.40;67.44;99934.13;4481439;31;34286;-82
2021/08/23 06:00:26;;;;;;;2.95;2.22;;;;;;;22.47;66.09;99938.81;4477995;31;33880;-83
2021/08/23 06:03:03;;;;;;;3.78;1.75;;;;;;;22.23;65.81;99938.38;4481737;31;33621;-83
2021/08/23 06:06:02;;;;;;;2.22;2.03;;;;;;;22.24;65.60;99945.44;4474069;31;33485;-83
2021/08/23 06:08:51;;;;;;;1.98;1.50;;;;;;;22.03;65.79;99948.19;4474781;31;33548;-81
2021/08/23 06:11:41;;;;;;;2.30;1.20;;;;;;;22.24;64.81;99946.28;4476710;31;33993;-79
2021/08/23 06:14:10;;;;;;;1.62;1.33;;;;;;;22.16;64.64;99956.88;4465148;31;34312;-79
2021/08/23 06:16:37;;;;;;;1.58;1.27;;;;;;;22.28;64.29;99962.16;4470495;31;33037;-79
2021/08/23 06:19:05;;;;;;;1.55;1.23;;;;;;;21.52;66.96;99956.31;4487515;31;33694;-79
2021/08/23 06:21:34;;;;;;;2.53;1.00;;;;;;;21.99;64.96;99963.75;4468890;31;33312;-79
2021/08/23 06:24:02;;;;;;;1.15;0.75;;;;;;;21.79;65.68;99961.09;4480958;31;33869;-79
2021/08/23 06:26:29;;;;;;;2.42;1.10;;;;;;;21.75;65.57;99973.97;4481889;31;33917;-79
2021/08/23 06:28:57;;;;;;;3.05;1.15;;;;;;;22.12;63.90;99976.97;4467910;31;33867;-79
2021/08/23 06:31:26;;;;;;;1.48;1.25;;;;;;;22.09;63.64;99971.84;4488358;31;35052;-79
2021/08/23 06:33:54;;;;;;;0.90;0.77;;;;;;;21.99;63.83;99973.66;4485938;31;33865;-79
2021/08/23 06:36:22;;;;;;;1.62;1.30;;;;;;;21.96;63.64;99963.16;4462074;31;32891;-80
2021/08/23 06:38:50;;;;;;;2.30;0.98;;;;;;;21.91;63.72;99957.34;4483912;31;33512;-80
2021/08/23 06:41:19;;;;;;;2.08;0.90;;;;;;;21.91;63.49;99963.56;4485984;31;33675;-80
2021/08/23 06:43:47;;;;;;;1.83;1.25;;;;;;;21.67;64.62;99965.72;4487019;31;33802;-80
2021/08/23 06:46:16;;;;;;;1.37;0.95;;;;;;;21.63;64.99;99962.44;4464044;31;32135;-80
2021/08/23 06:48:44;;;;;;;1.15;0.73;;;;;;;22.04;62.86;99951.72;4470144;31;33614;-80
2021/08/23 06:51:13;;;;;;;1.50;0.93;;;;;;;21.68;64.48;99962.87;4481616;31;33999;-80
2021/08/23 06:53:40;;;;;;;3.60;0.90;;;;;;;21.61;65.36;99959.06;4469787;31;33453;-80
2021/08/23 06:56:08;;;;;;;1.60;0.80;;;;;;;22.16;62.77;99951.50;4484731;31;33824;-80
2021/08/23 06:58:35;;;;;;;1.83;0.93;;;;;;;22.41;61.82;99941.25;4485275;31;33360;-80
2021/08/23 07:01:03;;;;;;;1.17;0.80;;;;;;;22.02;63.61;99951.00;4482982;31;33774;-80
2021/08/23 07:03:32;;;;;;;1.27;0.57;;;;;;;22.28;62.34;99949.56;4479356;31;34394;-80
2021/08/23 07:05:59;;;;;;;1.75;1.23;;;;;;;22.43;61.46;99950.84;4481997;31;33127;-80
2021/08/23 07:08:44;;;;;;;1.58;1.15;;;;;;;22.21;62.27;99957.31;4478266;31;33552;-80
2021/08/23 07:11:12;;;;;;;1.37;1.08;;;;;;;22.48;61.43;99953.97;4481945;31;34011;-80
2021/08/23 07:13:41;;;;;;;2.08;1.05;;;;;;;22.46;61.14;99949.75;4481895;31;33759;-80
2021/08/23 07:16:08;;;;;;;1.30;0.73;;;;;;;22.39;61.23;99962.03;4472191;31;32024;-80
2021/08/23 07:18:36;;;;;;;2.22;1.10;;;;;;;22.32;60.35;99956.37;4470372;31;33871;-81
2021/08/23 07:21:05;;;;;;;2.67;0.85;;;;;;;22.58;59.54;99953.13;4480508;31;32958;-80
2021/08/23 07:23:32;;;;;;;1.33;0.85;;;;;;;22.64;59.35;99958.81;4471473;31;33126;-80
2021/08/23 07:26:00;;;;;;;1.00;0.90;;;;;;;22.70;59.65;99952.03;4475775;31;34323;-80
2021/08/23 07:28:28;;;;;;;1.35;1.12;;;;;;;22.61;59.28;99948.34;4468596;31;33527;-80
2021/08/23 07:30:57;;;;;;;2.53;0.98;;;;;;;22.59;61.00;99958.38;4482987;31;33729;-80
2021/08/23 07:33:27;;;;;;;1.23;0.70;;;;;;;23.02;58.89;99959.81;4469955;31;34174;-80
2021/08/23 07:35:55;;;;;;;1.58;1.00;;;;;;;22.72;58.86;99955.41;4464525;31;32849;-80
2021/08/23 07:38:23;;;;;;;1.75;0.80;;;;;;;22.92;57.80;99950.91;4485938;31;33984;-80
2021/08/23 07:40:50;;;;;;;1.90;1.10;;;;;;;23.04;57.89;99940.84;4483302;31;34955;-81
2021/08/23 07:43:19;;;;;;;2.80;0.90;;;;;;;22.75;59.67;99941.69;4486691;31;33196;-80
2021/08/23 07:45:48;;;;;;;2.20;1.05;;;;;;;22.70;59.19;99939.41;4461293;31;32762;-80
2021/08/23 07:48:16;;;;;;;1.23;0.73;;;;;;;22.23;61.34;99939.22;4468659;31;34555;-80
2021/08/23 07:50:44;;;;;;;1.77;1.20;;;;;;;22.93;58.45;99933.75;4487550;31;33729;-80
2021/08/23 07:53:12;;;;;;;1.90;1.27;;;;;;;22.92;58.78;99940.13;4480815;31;33185;-81
2021/08/23 07:55:40;;;;;;;1.58;1.00;;;;;;;22.69;59.94;99950.31;4486139;31;33223;-80
2021/08/23 07:58:07;;;;;;;1.27;0.80;;;;;;;22.70;59.12;99950.19;4470458;31;33809;-81
2021/08/23 08:00:35;;;;;;;1.92;1.10;;;;;;;22.56;59.81;99947.06;4474319;31;33833;-80
2021/08/23 08:03:03;;;;;;;2.05;1.20;;;;;;;22.78;58.72;99948.63;4469430;31;34646;-80
2021/08/23 08:05:37;;;;;;;2.28;1.20;;;;;;;22.35;60.20;99955.22;4480583;31;33373;-80
2021/08/23 08:08:12;;;;;;;5.10;1.65;;;;;;;22.58;59.71;99948.59;4470427;31;33873;-80
2021/08/23 08:10:40;;;;;;;2.10;1.12;;;;;;;22.77;58.88;99957.69;4458090;31;35143;-80
2021/08/23 08:13:08;;;;;;;2.03;1.15;;;;;;;22.46;59.64;99953.28;4464933;31;33384;-80
2021/08/23 08:15:36;;;;;;;1.55;1.12;;;;;;;22.95;58.35;99956.03;4480609;31;33536;-80
2021/08/23 08:18:04;;;;;;;1.65;0.88;;;;;;;23.00;58.13;99961.81;4478175;31;32404;-80
2021/08/23 08:20:33;;;;;;;1.60;1.27;;;;;;;23.01;58.73;99958.13;4484625;31;33921;-80
2021/08/23 08:23:01;;;;;;;1.52;1.12;;;;;;;22.69;59.56;99961.94;4485160;31;34682;-80
2021/08/23 08:25:30;;;;;;;1.92;1.10;;;;;;;23.07;58.21;99964.78;4490386;31;33377;-80
2021/08/23 08:27:58;;;;;;;2.75;1.10;;;;;;;23.26;57.25;99970.16;4483278;31;33623;-79
2021/08/23 08:30:26;;;;;;;1.60;1.02;;;;;;;22.57;60.85;99960.38;4483348;31;33813;-79
2021/08/23 08:32:54;;;;;;;2.17;1.17;;;;;;;22.57;60.26;99960.38;4474387;31;33035;-80
2021/08/23 08:35:22;;;;;;;1.83;1.10;;;;;;;23.01;58.75;99963.53;4481605;31;33133;-80
2021/08/23 08:37:52;;;;;;;3.80;1.20;;;;;;;23.14;58.56;99965.94;4483065;31;33497;-79
2021/08/23 08:40:20;;;;;;;1.35;1.10;;;;;;;23.15;59.14;99956.84;4480632;31;33394;-80
2021/08/23 08:42:49;;;;;;;2.12;1.55;;;;;;;22.90;58.86;99958.28;4470125;31;34962;-79
2021/08/23 08:45:17;;;;;;;1.40;0.95;;;;;;;22.61;59.92;99958.25;4484604;31;32940;-80
2021/08/23 08:47:45;;;;;;;1.50;1.10;;;;;;;23.12;58.52;99968.78;4487251;31;33758;-80
2021/08/23 08:50:15;;;;;;;1.55;1.02;;;;;;;22.51;60.64;99974.38;4471240;31;34003;-80
2021/08/23 08:52:45;;;;;;;1.30;1.10;;;;;;;22.83;59.67;99976.81;4482879;31;34017;-80
2021/08/23 08:55:14;;;;;;;2.90;1.58;;;;;;;22.53;60.29;99985.84;4463259;31;32650;-80
2021/08/23 08:57:42;;;;;;;1.98;1.08;;;;;;;22.72;59.53;99985.03;4482650;31;34722;-81
2021/08/23 09:00:11;;;;;;;4.15;1.08;;;;;;;22.84;59.50;99975.00;4485802;31;35331;-81
2021/08/23 09:02:39;;;;;;;2.25;1.25;;;;;;;22.74;60.00;99981.22;4488053;31;33958;-80
2021/08/23 09:05:16;;;;;;;2.72;1.12;;;;;;;22.67;60.01;99977.38;4464903;31;33752;-80
2021/08/23 09:07:49;;;;;;;1.10;0.98;;;;;;;22.24;61.41;99983.94;4473320;31;34424;-80
2021/08/23 09:10:22;;;;;;;5.40;1.12;;;;;;;22.62;60.36;99978.78;4471871;31;33952;-80
2021/08/23 09:13:19;;;;;;;2.60;1.52;;;;;;;22.28;61.46;99983.69;4477968;31;33996;-80
2021/08/23 09:16:05;;;;;;;1.40;1.27;;;;;;;22.34;61.33;99977.75;4461222;31;33475;-80
2021/08/23 09:18:33;;;;;;;1.58;1.10;;;;;;;22.40;61.04;99974.50;4454239;31;33270;-80
2021/08/23 09:21:04;;;;;;;1.90;1.20;;;;;;;22.05;62.12;99972.25;4467654;31;33023;-80
2021/08/23 09:23:34;;;;;;;3.78;1.65;;;;;;;21.99;62.29;99979.88;4489774;31;33475;-79
2021/08/23 09:26:15;;;;;;;2.95;1.25;;;;;;;22.23;62.15;99990.31;4480588;31;33083;-80
2021/08/23 09:28:58;;;;;;;2.35;1.40;;;;;;;22.47;61.68;99983.72;4483036;31;33984;-80
2021/08/23 09:31:35;;;;;;;3.53;1.90;;;;;;;22.33;63.31;99984.13;4491258;31;34026;-80
2021/08/23 09:34:05;;;;;;;2.15;1.27;;;;;;;22.42;61.83;99980.59;4483871;31;34843;-80
2021/08/23 09:36:33;;;;;;;1.25;0.90;;;;;;;22.38;62.56;99980.03;4460210;31;32831;-80
2021/08/23 09:39:08;;;;;;;3.08;1.15;;;;;;;22.08;64.25;99982.75;4485032;31;34486;-80
2021/08/23 09:41:40;;;;;;;1.65;1.10;;;;;;;22.10;63.37;99986.97;4458954;31;32837;-80
2021/08/23 09:44:13;;;;;;;3.67;1.08;;;;;;;22.24;62.32;99985.78;4468067;31;33706;-80
2021/08/23 09:46:43;;;;;;;1.62;1.27;;;;;;;22.34;62.44;99983.13;4476534;31;33525;-80
2021/08/23 09:49:12;;;;;;;1.50;1.25;;;;;;;22.35;62.53;99968.69;4474629;31;34887;-82
2021/08/23 09:51:45;;;;;;;3.27;1.93;;;;;;;22.52;62.46;99968.00;4469141;31;33612;-81
2021/08/23 09:54:19;;;;;;;1.90;1.37;;;;;;;22.53;62.54;99977.78;4473092;31;33834;-81
2021/08/23 09:56:49;;;;;;;2.37;1.80;;;;;;;22.18;63.80;99978.28;4469986;31;32816;-81
2021/08/23 09:59:31;;;;;;;2.53;1.15;;;;;;;22.08;63.91;99980.91;4469797;31;33125;-81
2021/08/23 10:02:02;;;;;;;1.83;1.12;;;;;;;22.16;63.28;99978.37;4472222;31;34129;-81
2021/08/23 10:04:30;;;;;;;3.17;1.40;;;;;;;22.02;63.95;99967.12;4452542;31;34037;-81
2021/08/23 10:06:58;;;;;;;2.03;1.42;;;;;;;21.92;63.84;99967.94;4481903;31;33575;-81
2021/08/23 10:09:27;;;;;;;2.25;1.10;;;;;;;22.22;62.47;99967.09;4468496;31;32445;-81
2021/08/23 10:11:59;;;;;;;2.30;1.30;;;;;;;22.16;63.02;99978.37;4494020;31;33117;-81
2021/08/23 10:14:27;;;;;;;1.45;0.93;;;;;;;21.98;63.28;99971.91;4466460;31;32544;-81
2021/08/23 10:16:54;;;;;;;3.62;1.55;;;;;;;22.17;62.92;99972.03;4469676;31;33657;-81
2021/08/23 10:19:22;;;;;;;2.40;1.52;;;;;;;22.19;62.81;99975.44;4482643;31;33413;-80
2021/08/23 10:21:50;;;;;;;1.83;1.08;;;;;;;22.35;62.37;99976.75;4481676;31;33466;-80
2021/08/23 10:24:28;;;;;;;1.92;1.25;;;;;;;22.46;61.57;99955.97;4477863;31;33565;-81
2021/08/23 10:26:58;;;;;;;2.53;1.42;;;;;;;22.35;61.97;99957.91;4465667;31;33047;-81
2021/08/23 10:29:38;;;;;;;4.60;1.55;;;;;;;22.25;62.28;99947.13;4485119;31;33853;-80
2021/08/23 10:32:11;;;;;;;1.85;1.37;;;;;;;22.36;62.14;99951.53;4477980;31;34081;-80
2021/08/23 10:34:38;;;;;;;2.35;1.40;;;;;;;22.33;62.32;99955.37;4480280;31;34054;-80
2021/08/23 10:37:21;;;;;;;4.10;1.95;;;;;;;22.38;62.78;99958.50;4464953;31;32125;-81
2021/08/23 10:40:00;;;;;;;1.80;1.25;;;;;;;22.28;63.01;99957.63;4482387;31;33224;-80
2021/08/23 10:42:39;;;;;;;2.75;1.80;;;;;;;21.98;63.87;99961.16;4463882;31;33580;-80
2021/08/23 10:45:08;;;;;;;2.25;1.55;;;;;;;22.27;62.73;99949.72;4482937;31;33542;-81
2021/08/23 10:47:37;;;;;;;1.33;1.05;;;;;;;22.52;61.87;99951.03;4482872;31;33490;-81
2021/08/23 10:50:07;;;;;;;1.83;1.27;;;;;;;22.71;61.28;99948.34;4471817;31;34818;-81
2021/08/23 10:52:38;;;;;;;3.85;1.40;;;;;;;22.52;61.77;99953.72;4470285;31;34989;-80
2021/08/23 10:55:07;;;;;;;2.47;1.73;;;;;;;22.38;61.99;99963.03;4455777;31;34366;-81
2021/08/23 10:57:35;;;;;;;1.95;1.55;;;;;;;22.33;62.58;99959.91;4472396;31;33017;-80
2021/08/23 11:00:11;;;;;;;2.17;1.50;;;;;;;22.48;62.09;99945.91;4472139;31;34249;-80
2021/08/23 11:02:39;;;;;;;4.10;1.25;;;;;;;22.24;63.22;99948.97;4474507;31;34064;-80
2021/08/23 11:05:15;;;;;;;4.68;1.45;;;;;;;22.48;62.99;99937.84;4474867;31;34283;-81
2021/08/23 11:07:46;;;;;;;2.22;1.37;;;;;;;22.72;62.59;99928.50;4469468;31;32769;-81
2021/08/23 11:10:15;;;;;;;1.75;1.37;;;;;;;22.40;63.53;99934.13;4465730;32;33876;-82
2021/08/23 11:12:48;;;;;;;2.40;1.80;;;;;;;22.55;63.88;99932.75;4482026;31;34518;-81
2021/08/23 11:15:20;;;;;;;3.35;1.77;;;;;;;22.61;63.52;99937.56;4484476;31;33984;-81
2021/08/23 11:17:49;;;;;;;;;;;;;;;22.43;64.64;99933.88;4486573;31;33168;-81
2021/08/23 11:20:41;;;;;;;2.90;1.40;;;;;;;22.12;65.88;99947.37;4482278;31;33065;-81
2021/08/23 11:23:35;;;;;;;2.85;2.05;;;;;;;22.08;66.21;99945.94;4494429;31;34087;-81
2021/08/23 11:26:03;;;;;;;3.28;1.65;;;;;;;22.21;65.72;99940.31;4448676;31;32046;-81
2021/08/23 11:28:31;;;;;;;1.98;1.00;;;;;;;22.16;65.97;99932.66;4482708;31;189156;-81
2021/08/23 11:31:03;;;;;;;1.67;1.40;;;;;;;21.94;66.25;99941.78;4475195;31;33599;-81
2021/08/23 11:33:36;;;;;;;2.67;1.83;;;;;;;21.78;67.08;99943.28;4476398;31;34310;-82
2021/08/23 11:36:14;;;;;;;2.50;1.48;;;;;;;21.97;66.45;99937.97;4491455;31;34407;-81
2021/08/23 11:38:50;;;;;;;4.68;1.45;;;;;;;22.34;64.91;99934.69;4486186;31;33454;-81
2021/08/23 11:41:20;;;;;;;2.08;1.20;;;;;;;22.31;65.26;99929.59;4472895;31;33251;-81
2021/08/23 11:43:49;;;;;;;1.75;1.48;;;;;;;21.83;67.32;99925.75;4480184;31;33214;-81
2021/08/23 11:46:16;;;;;;;3.78;1.23;;;;;;;21.86;67.04;99938.06;4455555;31;33787;-81
2021/08/23 11:48:44;;;;;;;3.08;1.42;;;;;;;21.91;66.77;99938.53;4490530;31;33186;-81
2021/08/23 11:51:31;;;;;;;3.30;1.30;;;;;;;21.89;66.36;99930.59;4472668;31;33654;-81
2021/08/23 11:53:59;;;;;;;2.47;1.35;;;;;;;22.15;65.32;99936.34;4479649;31;32902;-81
2021/08/23 11:56:27;;;;;;;1.58;1.35;;;;;;;22.07;65.60;99933.47;4476886;31;33730;-81
2021/08/23 11:58:55;;;;;;;1.48;1.17;;;;;;;22.10;65.28;99938.56;4492733;31;33059;-81
2021/08/23 12:01:23;;;;;;;2.53;1.52;;;;;;;21.94;65.38;99938.25;4480035;31;34821;-81
2021/08/23 12:03:57;;;;;;;2.30;1.35;;;;;;;21.84;65.08;99943.59;4468311;31;33809;-81